Gurney, Wisconsin
Current Conditions -  °F | °C
As of 10:35 AM on Saturday 22 Nov 2014 (Local Time) from KIWD Reporting Station
Overcast Overcast  
Wind Chill: 29°   Ceiling: 900
Heat Index: 36°   Visibility: 5mi
Dew Point: 32°   Wind: 9mph
Humidity: 87%   Direction: 210°SSW
Pressure: 29.68"   Gusts: NA
Location:  46.4902°N, 90.4521°W
Report Text: KIWD 221635Z AUTO 21008KT 5SM OVC009 02/00 A2968 RMK AO1
Loading
Personal Weather Stations






























Interactive Weather Map New forecast layout! Learn more

10-Day Weather Forecast

Advertisements
Track Severe Weather on mobile